Time;durP1;ratioP1;P1;durP2;ratioP2;P2;SDS_P1;SDS_P2;PMS_P1;PMS_P2;Temp;Humidity;BMP_temperature;BMP_pressure;BME280_temperature;BME280_humidity;BME280_pressure;Samples;Min_cycle;Max_cycle;Signal;HPM_P1;HPM_P2
2021/11/18 00:00:20;;;;;;;11.36;6.75;;;;;;;6.61;92.81;100465.75;2022764;80;20335;-76
2021/11/18 00:03:24;;;;;;;8.56;5.78;;;;;;;6.55;93.10;100467.31;2013823;80;20353;-76
2021/11/18 00:06:26;;;;;;;10.18;5.56;;;;;;;6.51;93.29;100453.44;2013335;80;20322;-76
2021/11/18 00:09:29;;;;;;;10.65;6.29;;;;;;;6.50;93.53;100458.56;2013033;80;20329;-76
2021/11/18 00:12:32;;;;;;;9.49;6.13;;;;;;;6.46;93.67;100470.47;2014007;80;20411;-76
2021/11/18 00:15:35;;;;;;;12.50;6.88;;;;;;;6.45;93.74;100473.00;2014978;77;23811;-78
2021/11/18 00:18:41;;;;;;;10.52;6.43;;;;;;;6.42;93.86;100476.38;2025765;80;20350;-78
2021/11/18 00:21:44;;;;;;;9.95;6.06;;;;;;;6.43;94.12;100477.25;2026701;80;20349;-78
2021/11/18 00:24:47;;;;;;;13.77;6.21;;;;;;;6.42;94.24;100483.25;2025015;80;20380;-78
2021/11/18 00:27:50;;;;;;;9.30;5.79;;;;;;;6.41;94.44;100479.78;2024953;80;20333;-78
2021/11/18 00:30:53;;;;;;;8.44;5.86;;;;;;;6.40;94.38;100479.75;2025158;77;21727;-78
2021/11/18 00:33:57;;;;;;;9.24;5.76;;;;;;;6.39;94.50;100478.88;2089300;69;20323;-78
2021/11/18 00:36:59;;;;;;;12.01;5.99;;;;;;;6.39;94.42;100471.13;2031096;79;20344;-78
2021/11/18 00:40:06;;;;;;;9.94;6.24;;;;;;;6.37;94.40;100475.38;2031164;79;20315;-78
2021/11/18 00:43:11;;;;;;;11.57;6.59;;;;;;;6.39;94.72;100476.28;2031217;79;20319;-78
2021/11/18 00:46:14;;;;;;;12.34;6.16;;;;;;;6.44;94.85;100477.28;2030627;77;21514;-78
2021/11/18 00:49:17;;;;;;;10.26;6.76;;;;;;;6.48;94.91;100474.00;2028124;79;20346;-78
2021/11/18 00:52:20;;;;;;;11.34;6.28;;;;;;;6.51;94.99;100486.97;2031094;79;20299;-78
2021/11/18 00:55:26;;;;;;;9.41;5.99;;;;;;;6.52;95.05;100478.41;2030933;79;20430;-78
2021/11/18 00:58:28;;;;;;;11.98;6.00;;;;;;;6.56;95.08;100477.66;2031069;79;20315;-78
2021/11/18 01:01:40;;;;;;;10.34;5.72;;;;;;;6.57;95.21;100474.25;2032179;77;22267;-78
2021/11/18 01:04:44;;;;;;;8.30;5.41;;;;;;;6.59;95.25;100480.31;2036350;79;20330;-78
2021/11/18 01:07:47;;;;;;;7.44;4.97;;;;;;;6.62;95.26;100488.16;2036011;79;20416;-78
2021/11/18 01:10:54;;;;;;;10.96;5.84;;;;;;;6.63;95.25;100494.19;2036797;79;20317;-78
2021/11/18 01:13:56;;;;;;;9.30;5.72;;;;;;;6.64;95.36;100493.34;2036993;79;20306;-78
2021/11/18 01:16:59;;;;;;;10.45;6.65;;;;;;;6.66;95.45;100502.03;2032433;77;22068;-78
2021/11/18 01:20:05;;;;;;;11.88;6.55;;;;;;;6.68;95.45;100500.38;2031035;79;20816;-78
2021/11/18 01:23:11;;;;;;;11.85;7.38;;;;;;;6.70;95.48;100488.41;2030919;79;20396;-78
2021/11/18 01:26:18;;;;;;;11.54;6.89;;;;;;;6.70;95.39;100498.72;2030641;79;20310;-78
2021/11/18 01:29:20;;;;;;;16.24;7.55;;;;;;;6.72;95.48;100494.47;2031931;79;20360;-78
2021/11/18 01:32:23;;;;;;;10.14;6.54;;;;;;;6.75;95.49;100502.28;2029978;77;24035;-78
2021/11/18 01:35:26;;;;;;;12.24;7.20;;;;;;;6.77;95.38;100485.16;2031127;79;20315;-78
2021/11/18 01:38:31;;;;;;;12.89;6.90;;;;;;;6.76;95.28;100482.53;2030633;79;20307;-78
2021/11/18 01:41:35;;;;;;;10.49;6.11;;;;;;;6.76;95.41;100479.94;2030484;79;20406;-78
2021/11/18 01:44:44;;;;;;;11.11;6.41;;;;;;;6.76;95.40;100485.09;2030964;79;20337;-78
2021/11/18 01:47:47;;;;;;;8.82;5.74;;;;;;;6.78;95.45;100488.59;2034311;77;26429;-78
2021/11/18 01:50:52;;;;;;;10.77;6.30;;;;;;;6.80;95.37;100487.81;2036204;79;20349;-78
2021/11/18 01:53:55;;;;;;;9.43;5.96;;;;;;;6.83;95.29;100489.63;2036917;79;20346;-78
2021/11/18 01:56:59;;;;;;;9.29;6.16;;;;;;;6.84;95.24;100494.84;2036823;79;20370;-78
2021/11/18 02:00:31;;;;;;;9.40;5.79;;;;;;;6.85;95.07;100482.78;2031782;79;20330;-77
2021/11/18 02:03:35;;;;;;;10.70;6.11;;;;;;;6.89;94.87;100492.38;2038016;79;20353;-78
2021/11/18 02:06:44;;;;;;;9.85;5.97;;;;;;;6.89;94.78;100487.22;2035846;79;20326;-78
2021/11/18 02:09:49;;;;;;;13.27;7.11;;;;;;;6.89;94.86;100493.25;2036734;79;20321;-78
2021/11/18 02:12:54;;;;;;;10.85;6.20;;;;;;;6.90;94.85;100502.75;2037019;79;20258;-78
2021/11/18 02:15:59;;;;;;;11.07;7.09;;;;;;;6.93;94.79;100501.94;2033490;79;21152;-78
2021/11/18 02:19:04;;;;;;;10.46;6.31;;;;;;;6.94;94.67;100503.69;2030246;77;22785;-78
2021/11/18 02:22:07;;;;;;;11.13;6.68;;;;;;;6.95;94.58;100513.19;2031543;79;20380;-78
2021/11/18 02:25:12;;;;;;;10.69;6.75;;;;;;;6.94;94.72;100526.94;2032011;79;20364;-78
2021/11/18 02:28:17;;;;;;;10.96;6.55;;;;;;;6.95;94.78;100518.34;2031121;79;20299;-78
2021/11/18 02:31:28;;;;;;;13.54;6.51;;;;;;;6.94;94.81;100522.63;2032529;77;25388;-78
2021/11/18 02:34:51;;;;;;;9.59;6.16;;;;;;;6.92;94.90;100531.19;2033469;79;20359;-78
2021/11/18 02:37:55;;;;;;;10.38;6.00;;;;;;;6.93;95.11;100536.38;2035622;79;20329;-78
2021/11/18 02:40:58;;;;;;;11.69;5.85;;;;;;;6.91;95.10;100534.59;2036100;79;20378;-78
2021/11/18 02:44:01;;;;;;;9.43;6.93;;;;;;;6.92;95.29;100536.34;2031968;79;20337;-78
2021/11/18 02:47:11;;;;;;;8.69;6.06;;;;;;;6.93;95.37;100540.66;2031637;78;21473;-78
2021/11/18 02:50:20;;;;;;;9.51;6.63;;;;;;;6.94;95.33;100537.25;2031339;80;20371;-78
2021/11/18 02:53:23;;;;;;;;;;;;;;;6.95;95.21;100523.50;2031204;80;20967;-78
2021/11/18 02:56:29;;;;;;;8.93;5.16;;;;;;;6.93;95.39;100518.31;2031560;80;20143;-78
2021/11/18 02:59:32;;;;;;;9.24;5.93;;;;;;;6.95;95.33;100533.84;2031039;79;20390;-78
2021/11/18 03:02:35;;;;;;;10.99;5.76;;;;;;;6.96;95.27;100535.59;2035167;77;22403;-78
2021/11/18 03:05:38;;;;;;;10.82;5.78;;;;;;;6.94;95.26;100543.28;2037495;79;20505;-78
2021/11/18 03:08:42;;;;;;;9.11;5.55;;;;;;;6.96;95.30;100543.34;2036441;79;20317;-78
2021/11/18 03:11:45;;;;;;;9.16;5.07;;;;;;;6.94;95.21;100540.72;2037170;79;20321;-78
2021/11/18 03:14:48;;;;;;;9.45;5.01;;;;;;;6.93;95.14;100546.72;2037374;79;20313;-78
2021/11/18 03:17:50;;;;;;;8.55;5.29;;;;;;;6.91;95.39;100558.69;2030109;77;27821;-78
2021/11/18 03:20:56;;;;;;;8.44;5.06;;;;;;;6.90;95.46;100551.78;2033115;79;20346;-78
2021/11/18 03:23:59;;;;;;;10.38;5.86;;;;;;;6.91;95.48;100560.41;2033147;79;20306;-78
2021/11/18 03:27:02;;;;;;;8.51;5.49;;;;;;;6.89;95.48;100562.94;2034332;79;20344;-78
2021/11/18 03:30:07;;;;;;;11.21;6.49;;;;;;;6.91;95.60;100568.16;2031379;79;20787;-78
2021/11/18 03:33:23;;;;;;;13.27;6.80;;;;;;;6.93;95.55;100571.66;2037689;76;21760;-78
2021/11/18 03:36:28;;;;;;;11.86;6.55;;;;;;;6.92;95.52;100573.34;2038591;79;20374;-78
2021/11/18 03:39:30;;;;;;;13.93;6.96;;;;;;;6.90;95.43;100569.00;2037670;79;20317;-78
2021/11/18 03:42:33;;;;;;;12.93;7.36;;;;;;;6.89;95.56;100572.41;2037475;79;20333;-78
2021/11/18 03:45:37;;;;;;;12.10;6.56;;;;;;;6.91;95.60;100581.94;2037420;77;20391;-78
2021/11/18 03:48:40;;;;;;;9.39;6.55;;;;;;;6.92;95.57;100575.94;2034136;79;20325;-78
2021/11/18 03:51:44;;;;;;;11.73;6.93;;;;;;;6.91;95.51;100569.03;2038682;79;20391;-78
2021/11/18 03:54:47;;;;;;;10.32;6.45;;;;;;;6.90;95.46;100574.16;2037745;79;20404;-78
2021/11/18 03:57:50;;;;;;;10.68;6.31;;;;;;;6.89;95.63;100587.88;2038262;79;20404;-77
2021/11/18 04:00:52;;;;;;;8.99;5.85;;;;;;;6.91;95.68;100581.94;2036441;77;22955;-78
2021/11/18 04:03:55;;;;;;;11.20;5.94;;;;;;;6.93;95.66;100580.28;2036439;79;20382;-78
2021/11/18 04:06:58;;;;;;;10.80;5.45;;;;;;;6.94;95.54;100582.03;2037610;79;20406;-78
2021/11/18 04:10:00;;;;;;;7.57;5.39;;;;;;;6.95;95.46;100577.72;2036374;79;20338;-78
2021/11/18 04:13:05;;;;;;;10.77;5.85;;;;;;;6.97;95.38;100587.28;2040544;79;20401;-78
2021/11/18 04:16:08;;;;;;;10.54;5.47;;;;;;;6.96;95.24;100588.09;2033194;77;25133;-78
2021/11/18 04:19:13;;;;;;;9.02;5.25;;;;;;;6.95;95.34;100585.47;2031764;79;20334;-78
2021/11/18 04:22:16;;;;;;;10.39;5.60;;;;;;;6.95;95.35;100588.06;2032139;79;20794;-78
2021/11/18 04:25:23;;;;;;;10.18;5.56;;;;;;;6.94;95.43;100592.34;2031453;79;20322;-78
2021/11/18 04:28:25;;;;;;;9.94;5.95;;;;;;;6.95;95.34;100580.31;2032014;79;20392;-78
2021/11/18 04:31:30;;;;;;;9.64;5.75;;;;;;;6.93;95.27;100582.84;2031996;77;20633;-78
2021/11/18 04:34:34;;;;;;;12.50;6.04;;;;;;;6.93;95.25;100577.69;2037792;79;20311;-77
2021/11/18 04:37:36;;;;;;;7.99;5.34;;;;;;;6.92;95.14;100582.81;2036514;79;20318;-78
2021/11/18 04:40:39;;;;;;;8.25;5.10;;;;;;;6.88;95.18;100581.84;2037070;79;20343;-78
2021/11/18 04:43:42;;;;;;;8.35;4.90;;;;;;;6.86;95.23;100586.09;2037024;79;20314;-78
2021/11/18 04:46:45;;;;;;;9.04;5.44;;;;;;;6.86;95.30;100587.81;2033404;77;27436;-78
2021/11/18 04:49:49;;;;;;;9.00;5.01;;;;;;;6.85;95.40;100591.22;2032067;79;20200;-78
2021/11/18 04:52:56;;;;;;;8.24;4.62;;;;;;;6.86;95.35;100590.38;2032079;79;20331;-78
2021/11/18 04:55:59;;;;;;;10.80;5.07;;;;;;;6.86;95.36;100588.69;2031595;79;20178;-78
2021/11/18 04:59:03;;;;;;;12.06;4.74;;;;;;;6.85;95.29;100593.81;2031474;79;20514;-78
2021/11/18 05:02:06;;;;;;;8.85;4.43;;;;;;;6.83;95.33;100592.88;2030155;77;29078;-78
2021/11/18 05:05:14;;;;;;;8.64;4.43;;;;;;;6.80;95.25;100603.09;2031610;79;20314;-78
2021/11/18 05:08:17;;;;;;;5.61;3.80;;;;;;;6.80;95.41;100597.94;2032136;79;20955;-78
2021/11/18 05:11:20;;;;;;;7.69;4.63;;;;;;;6.78;95.39;100600.47;2031897;79;20328;-78
2021/11/18 05:14:23;;;;;;;8.57;4.59;;;;;;;6.77;95.39;100593.56;2031169;79;20383;-78
2021/11/18 05:17:26;;;;;;;7.50;4.47;;;;;;;6.75;95.33;100586.59;2029893;77;22456;-78
2021/11/18 05:20:30;;;;;;;9.96;4.71;;;;;;;6.72;95.42;100589.97;2031666;79;20444;-78
2021/11/18 05:23:33;;;;;;;10.14;4.60;;;;;;;6.70;95.34;100591.63;2031854;79;20334;-78
2021/11/18 05:26:36;;;;;;;7.90;4.36;;;;;;;6.65;95.21;100591.50;2031950;79;20336;-78
2021/11/18 05:29:39;;;;;;;9.10;5.11;;;;;;;6.62;95.26;100600.81;2031135;79;20334;-78
2021/11/18 05:32:43;;;;;;;7.64;4.20;;;;;;;6.60;95.21;100605.06;2034923;77;20759;-78
2021/11/18 05:35:46;;;;;;;8.31;5.05;;;;;;;6.58;95.27;100609.31;2036065;79;20318;-78
2021/11/18 05:38:49;;;;;;;9.50;4.90;;;;;;;6.59;95.25;100618.78;2036855;79;20390;-77
2021/11/18 05:41:52;;;;;;;9.04;4.99;;;;;;;6.58;95.20;100632.53;2034549;79;20325;-77
2021/11/18 05:44:56;;;;;;;8.18;5.34;;;;;;;6.58;95.23;100635.97;2035722;79;20354;-78
2021/11/18 05:47:59;;;;;;;8.25;5.43;;;;;;;6.58;95.19;100632.53;2029599;78;24346;-77
2021/11/18 05:51:02;;;;;;;8.50;5.11;;;;;;;6.57;95.15;100626.50;2033831;79;20344;-78
2021/11/18 05:54:08;;;;;;;10.63;5.93;;;;;;;6.54;94.98;100639.31;2029802;79;21112;-77
2021/11/18 05:57:10;;;;;;;8.74;5.44;;;;;;;6.51;95.07;100633.19;2032034;79;20315;-78
2021/11/18 06:00:17;;;;;;;8.34;5.43;;;;;;;6.49;95.11;100630.56;2030393;79;20336;-78
2021/11/18 06:03:20;;;;;;;9.14;5.74;;;;;;;6.49;95.20;100632.25;2036922;78;22627;-78
2021/11/18 06:06:22;;;;;;;8.19;5.55;;;;;;;6.47;95.16;100639.06;2036933;79;20318;-78
2021/11/18 06:09:25;;;;;;;8.90;5.71;;;;;;;6.44;95.09;100644.97;2037204;79;20333;-78
2021/11/18 06:12:28;;;;;;;11.63;5.93;;;;;;;6.41;95.01;100644.88;2036706;79;20350;-78
2021/11/18 06:15:31;;;;;;;9.25;5.36;;;;;;;6.39;95.04;100631.06;2035897;77;22640;-78
2021/11/18 06:18:34;;;;;;;9.54;5.54;;;;;;;6.32;94.97;100639.44;2040368;79;20337;-78
2021/11/18 06:21:41;;;;;;;10.23;5.47;;;;;;;6.29;95.12;100640.22;2035752;79;20707;-78
2021/11/18 06:24:44;;;;;;;12.68;6.43;;;;;;;6.21;94.96;100641.66;2036501;79;20323;-78
2021/11/18 06:27:47;;;;;;;9.98;6.19;;;;;;;6.19;95.15;100640.75;2036156;79;20357;-78
2021/11/18 06:30:58;;;;;;;13.63;6.36;;;;;;;6.20;95.28;100642.50;2034343;77;23539;-78
2021/11/18 06:34:02;;;;;;;8.06;5.95;;;;;;;6.19;95.24;100648.47;2026257;80;20307;-78
2021/11/18 06:37:04;;;;;;;10.11;6.66;;;;;;;6.19;95.33;100642.44;2026384;80;20392;-78
2021/11/18 06:40:11;;;;;;;14.19;7.20;;;;;;;6.18;95.50;100646.72;2025725;80;20315;-78
2021/11/18 06:43:14;;;;;;;11.01;7.19;;;;;;;6.21;95.68;100648.53;2025981;80;20304;-78
2021/11/18 06:46:17;;;;;;;13.95;8.07;;;;;;;6.23;95.80;100652.03;2024798;80;20393;-78
2021/11/18 06:49:20;;;;;;;12.51;7.47;;;;;;;6.26;95.88;100653.00;2024705;80;21098;-78
2021/11/18 06:52:23;;;;;;;13.65;7.53;;;;;;;6.30;95.89;100652.28;2024509;80;20384;-78
2021/11/18 06:55:25;;;;;;;9.91;7.14;;;;;;;6.34;95.87;100653.25;2024467;80;20409;-78
2021/11/18 06:58:40;;;;;;;10.34;6.64;;;;;;;6.38;95.79;100661.97;2026581;80;20501;-80
2021/11/18 07:01:55;;;;;;;11.48;6.95;;;;;;;6.40;95.70;100665.47;2028728;77;25320;-79
2021/11/18 07:04:59;;;;;;;12.14;7.07;;;;;;;6.38;95.68;100673.16;2032552;79;20318;-78
2021/11/18 07:08:03;;;;;;;11.16;6.36;;;;;;;6.38;95.72;100668.00;2031614;80;21023;-78
2021/11/18 07:11:07;;;;;;;9.19;6.68;;;;;;;6.39;95.79;100676.63;2032000;80;20824;-78
2021/11/18 07:14:09;;;;;;;10.77;6.71;;;;;;;6.42;96.00;100679.31;2031939;80;21006;-79
2021/11/18 07:17:13;;;;;;;12.98;8.21;;;;;;;6.44;95.92;100683.69;2026893;77;22313;-79
2021/11/18 07:20:16;;;;;;;11.54;7.28;;;;;;;6.45;95.93;100692.28;2027826;80;21097;-80
2021/11/18 07:23:21;;;;;;;10.96;7.09;;;;;;;6.46;96.08;100692.34;2030693;80;20400;-79
2021/11/18 07:26:24;;;;;;;10.46;7.25;;;;;;;6.53;95.99;100698.59;2024920;80;20848;-77
2021/11/18 07:29:26;;;;;;;9.89;6.81;;;;;;;6.55;95.83;100699.53;2023929;80;20788;-77
2021/11/18 07:32:29;;;;;;;13.65;6.82;;;;;;;6.56;95.98;100699.56;2018014;77;21917;-78
2021/11/18 07:35:34;;;;;;;12.05;7.05;;;;;;;6.61;95.93;100710.03;2018789;80;20325;-77
2021/11/18 07:38:38;;;;;;;9.73;6.70;;;;;;;6.65;95.83;100717.94;2018749;80;20377;-77
2021/11/18 07:41:41;;;;;;;11.91;6.21;;;;;;;6.69;95.78;100715.47;2017652;80;20808;-77
2021/11/18 07:44:44;;;;;;;8.45;6.34;;;;;;;6.72;95.64;100723.31;2021071;80;20438;-79
2021/11/18 07:47:46;;;;;;;11.60;6.71;;;;;;;6.74;95.53;100722.53;2020374;80;21242;-77
2021/11/18 07:50:49;;;;;;;9.05;6.74;;;;;;;6.77;95.51;100726.91;2022498;80;20432;-78
2021/11/18 07:53:53;;;;;;;8.84;6.19;;;;;;;6.78;95.58;100718.31;2024005;80;20312;-79
2021/11/18 07:56:55;;;;;;;12.73;6.40;;;;;;;6.82;95.59;100727.91;2023884;80;20312;-80
2021/11/18 07:59:58;;;;;;;9.16;5.90;;;;;;;6.86;95.76;100727.22;2023912;80;20417;-77
2021/11/18 08:03:06;;;;;;;7.82;5.74;;;;;;;6.91;95.79;100720.47;2023241;77;22293;-77
2021/11/18 08:06:12;;;;;;;10.90;6.61;;;;;;;6.96;95.78;100724.94;2026034;80;20324;-77
2021/11/18 08:09:15;;;;;;;11.16;7.44;;;;;;;7.02;95.77;100726.88;2023864;80;20389;-77
2021/11/18 08:12:17;;;;;;;14.54;7.53;;;;;;;7.09;95.63;100727.94;2024305;80;20920;-77
2021/11/18 08:15:20;;;;;;;13.19;7.93;;;;;;;7.15;95.50;100722.94;2024376;80;20425;-79
2021/11/18 08:18:26;;;;;;;13.88;8.52;;;;;;;7.21;95.21;100728.31;2020963;80;20316;-79
2021/11/18 08:21:29;;;;;;;13.89;8.13;;;;;;;7.26;95.01;100732.78;2019675;80;20309;-78
2021/11/18 08:24:32;;;;;;;13.88;7.60;;;;;;;7.32;94.66;100736.38;2017884;80;20349;-77
2021/11/18 08:27:35;;;;;;;12.88;8.48;;;;;;;7.35;94.23;100745.09;2021078;80;20342;-80
2021/11/18 08:30:41;;;;;;;12.80;8.07;;;;;;;7.36;94.10;100741.69;2020076;77;23003;-80
2021/11/18 08:33:44;;;;;;;13.14;7.40;;;;;;;7.40;93.95;100735.78;2035175;79;20383;-80
2021/11/18 08:36:48;;;;;;;14.19;7.41;;;;;;;7.41;93.76;100726.31;2034168;79;20335;-78
2021/11/18 08:39:51;;;;;;;14.00;7.91;;;;;;;7.45;93.63;100726.44;2033643;79;20365;-78
2021/11/18 08:42:54;;;;;;;16.31;7.95;;;;;;;7.49;93.35;100735.16;2033158;79;20302;-78
2021/11/18 08:45:57;;;;;;;18.21;8.57;;;;;;;7.51;93.17;100728.34;2028455;77;25412;-77
2021/11/18 08:49:00;;;;;;;12.34;8.18;;;;;;;7.56;93.04;100727.66;2035595;79;20431;-78
2021/11/18 08:52:08;;;;;;;13.91;7.94;;;;;;;7.63;92.95;100733.00;2035759;79;20339;-78
2021/11/18 08:55:16;;;;;;;13.84;8.98;;;;;;;7.70;92.84;100738.38;2036017;79;21373;-78
2021/11/18 08:58:23;;;;;;;14.79;8.74;;;;;;;7.78;92.44;100736.03;2035702;79;20302;-78
2021/11/18 09:01:55;;;;;;;13.51;8.19;;;;;;;7.85;91.98;100746.56;2033484;77;49507;-79
2021/11/18 09:04:59;;;;;;;9.13;7.09;;;;;;;7.94;91.68;100752.84;2036664;79;20392;-78
2021/11/18 09:08:03;;;;;;;12.96;7.43;;;;;;;8.00;91.03;100759.06;2034745;79;20374;-78
2021/11/18 09:11:09;;;;;;;12.51;7.88;;;;;;;8.05;90.49;100754.88;2035821;79;20321;-78
2021/11/18 09:14:15;;;;;;;16.19;8.20;;;;;;;8.11;89.99;100760.25;2036036;79;20325;-78
2021/11/18 09:17:18;;;;;;;14.82;7.65;;;;;;;8.16;88.94;100765.53;2026227;78;20427;-78
2021/11/18 09:20:27;;;;;;;15.25;7.45;;;;;;;8.28;88.68;100762.41;2029761;79;20878;-78
2021/11/18 09:23:35;;;;;;;13.26;7.66;;;;;;;8.40;88.33;100768.81;2030253;79;20330;-78
2021/11/18 09:26:41;;;;;;;14.26;6.74;;;;;;;8.49;87.22;100763.00;2030726;79;20795;-78
2021/11/18 09:29:45;;;;;;;13.71;7.15;;;;;;;8.61;86.08;100765.88;2031343;79;20319;-78
2021/11/18 09:32:48;;;;;;;13.96;7.61;;;;;;;8.75;85.77;100769.72;2033699;77;23908;-78
2021/11/18 09:35:54;;;;;;;13.98;7.69;;;;;;;8.88;84.38;100781.25;2035606;79;20345;-78
2021/11/18 09:38:59;;;;;;;19.60;10.00;;;;;;;9.02;83.70;100782.47;2035714;79;20322;-78
2021/11/18 09:42:11;;;;;;;15.75;8.06;;;;;;;9.11;82.58;100773.16;2036124;79;20823;-78
2021/11/18 09:45:22;;;;;;;12.59;6.85;;;;;;;9.18;81.37;100780.25;2034471;79;20318;-78
2021/11/18 09:48:46;;;;;;;15.89;7.54;;;;;;;9.28;81.12;100775.31;2037355;79;20393;-78
2021/11/18 09:52:07;;;;;;;12.50;6.91;;;;;;;9.37;80.72;100772.94;2035555;79;20370;-78
2021/11/18 09:55:15;;;;;;;11.81;6.85;;;;;;;9.52;80.18;100781.91;2036155;79;20835;-78
2021/11/18 09:58:26;;;;;;;13.73;6.95;;;;;;;9.58;79.46;100780.31;2032241;79;20317;-78
2021/11/18 10:01:44;;;;;;;14.66;7.20;;;;;;;9.68;79.20;100786.56;2033653;77;21577;-78
2021/11/18 10:04:55;;;;;;;16.11;6.95;;;;;;;9.77;78.46;100796.28;2034847;79;20317;-79
2021/11/18 10:08:06;;;;;;;13.16;6.97;;;;;;;9.83;77.79;100799.84;2035555;79;20419;-78
2021/11/18 10:11:19;;;;;;;14.64;6.81;;;;;;;9.88;77.54;100798.25;2033802;79;20439;-78
2021/11/18 10:14:46;;;;;;;12.55;5.86;;;;;;;9.95;76.94;100783.69;2034700;79;20341;-79
2021/11/18 10:17:55;;;;;;;12.02;5.93;;;;;;;10.00;76.90;100785.50;2034084;78;22514;-78
2021/11/18 10:21:16;;;;;;;;;;;;;;;9.88;75.55;100785.28;2034890;79;20198;-78
2021/11/18 10:24:22;;;;;;;8.49;5.13;;;;;;;9.88;76.56;100787.88;2033131;79;20509;-78
2021/11/18 10:27:39;;;;;;;9.71;5.84;;;;;;;9.92;77.04;100788.81;2038593;79;20201;-78
2021/11/18 10:31:08;;;;;;;15.31;5.75;;;;;;;9.91;76.97;100787.06;2031321;77;20250;-79
2021/11/18 10:34:13;;;;;;;14.39;5.68;;;;;;;9.87;76.93;100783.50;2030225;79;20301;-79
2021/11/18 10:37:22;;;;;;;10.63;5.36;;;;;;;9.83;76.82;100783.41;2029897;79;20208;-79
2021/11/18 10:40:29;;;;;;;12.11;5.71;;;;;;;9.74;75.55;100770.28;2029592;79;20270;-79
2021/11/18 10:43:38;;;;;;;12.89;5.22;;;;;;;9.69;76.23;100763.28;2029306;79;20360;-79
2021/11/18 10:46:49;;;;;;;12.41;4.60;;;;;;;9.67;76.42;100775.31;2032013;79;20188;-81
2021/11/18 10:50:13;;;;;;;7.25;4.26;;;;;;;9.66;76.30;100770.97;2029388;79;20428;-80
2021/11/18 10:53:30;;;;;;;10.82;4.76;;;;;;;9.71;76.39;100765.91;2026181;79;20436;-80
2021/11/18 10:56:39;;;;;;;12.39;4.57;;;;;;;9.76;76.80;100764.28;2030649;79;20292;-80
2021/11/18 10:59:46;;;;;;;7.90;3.95;;;;;;;9.79;76.18;100760.84;2031592;79;20861;-80
2021/11/18 11:02:50;;;;;;;10.66;4.18;;;;;;;9.80;76.33;100765.19;2023414;79;20639;-80
2021/11/18 11:06:07;;;;;;;11.44;4.66;;;;;;;9.81;75.87;100769.53;2033937;79;20310;-80
2021/11/18 11:09:10;;;;;;;10.32;5.15;;;;;;;9.79;76.18;100771.22;2019918;79;21100;-77
2021/11/18 11:12:29;;;;;;;13.57;5.55;;;;;;;9.75;76.19;100765.13;2031560;79;20275;-77
2021/11/18 11:15:41;;;;;;;12.20;5.07;;;;;;;9.71;75.71;100758.13;2028647;77;22555;-77
2021/11/18 11:18:59;;;;;;;11.89;5.36;;;;;;;9.64;75.47;100749.31;2031630;79;20201;-77
2021/11/18 11:22:09;;;;;;;19.30;5.81;;;;;;;9.63;75.41;100746.69;2031144;79;20321;-77
2021/11/18 11:25:48;;;;;;;12.79;5.11;;;;;;;9.60;75.17;100754.41;2032215;79;20525;-77
2021/11/18 11:29:01;;;;;;;9.04;4.70;;;;;;;9.65;76.03;100755.38;2031241;79;20673;-77
2021/11/18 11:32:18;;;;;;;7.45;4.55;;;;;;;9.70;75.55;100748.59;2029060;77;21621;-77
2021/11/18 11:35:57;;;;;;;13.86;4.91;;;;;;;9.72;75.57;100753.81;2031305;79;20223;-77
2021/11/18 11:39:12;;;;;;;12.23;4.74;;;;;;;9.69;75.29;100755.50;2029986;79;20213;-76
2021/11/18 11:42:33;;;;;;;10.39;4.90;;;;;;;9.68;75.52;100748.53;2033151;79;20515;-76
2021/11/18 11:45:41;;;;;;;10.44;4.63;;;;;;;9.74;75.52;100739.16;2031304;77;20335;-76
2021/11/18 11:48:47;;;;;;;11.70;5.43;;;;;;;9.81;75.08;100743.59;2032984;79;21116;-76
2021/11/18 11:52:17;;;;;;;10.38;4.68;;;;;;;9.88;74.32;100724.75;2034261;79;20161;-78
2021/11/18 11:55:23;;;;;;;8.34;4.91;;;;;;;9.91;74.17;100730.88;2034409;79;20536;-78
2021/11/18 11:58:31;;;;;;;9.39;4.32;;;;;;;9.92;74.25;100735.19;2034603;79;20235;-78
2021/11/18 12:01:47;;;;;;;10.38;4.79;;;;;;;9.95;74.43;100744.75;2029686;79;23063;-78
2021/11/18 12:05:11;;;;;;;10.05;4.21;;;;;;;9.96;74.04;100743.91;2023942;79;20207;-78
2021/11/18 12:08:41;;;;;;;6.84;3.97;;;;;;;9.95;72.99;100749.94;2029163;79;20174;-78
2021/11/18 12:12:13;;;;;;;10.14;3.56;;;;;;;9.99;72.87;100749.16;2029064;79;20188;-78
2021/11/18 12:15:20;;;;;;;14.45;3.90;;;;;;;10.07;72.20;100742.41;2031700;79;20278;-78
2021/11/18 12:18:30;;;;;;;6.80;3.00;;;;;;;10.11;71.60;100748.53;2030097;79;20301;-78
2021/11/18 12:21:33;;;;;;;9.91;3.55;;;;;;;10.11;71.57;100736.44;2024956;79;20209;-78
2021/11/18 12:25:05;;;;;;;7.18;2.96;;;;;;;10.10;71.80;100739.00;2029864;79;20215;-78
2021/11/18 12:28:08;;;;;;;9.19;3.53;;;;;;;10.11;72.09;100730.38;2029088;79;20178;-78
2021/11/18 12:31:23;;;;;;;11.89;3.21;;;;;;;10.08;71.97;100732.91;2023221;77;23769;-77
2021/11/18 12:35:07;;;;;;;9.82;3.10;;;;;;;10.07;71.64;100725.97;2023793;80;20253;-78
2021/11/18 12:38:31;;;;;;;9.79;3.30;;;;;;;10.00;71.95;100723.25;2023709;79;20188;-77
2021/11/18 12:41:41;;;;;;;5.93;3.16;;;;;;;9.96;72.09;100720.56;2023456;80;20216;-77
2021/11/18 12:44:58;;;;;;;10.66;2.89;;;;;;;9.95;73.04;100716.22;2023720;80;20199;-77
2021/11/18 12:48:09;;;;;;;10.81;3.53;;;;;;;9.97;72.81;100720.59;2032456;77;24530;-78
2021/11/18 12:51:18;;;;;;;12.38;3.21;;;;;;;9.98;73.25;100714.56;2034915;79;20249;-78
2021/11/18 12:54:44;;;;;;;6.95;3.70;;;;;;;9.98;73.22;100711.09;2033675;79;20186;-77
2021/11/18 12:57:55;;;;;;;9.26;3.71;;;;;;;9.94;72.99;100715.34;2035058;79;20174;-78
2021/11/18 13:01:20;;;;;;;10.01;4.35;;;;;;;9.94;72.98;100719.66;2032410;79;20209;-78
2021/11/18 13:04:37;;;;;;;7.35;3.29;;;;;;;9.95;72.83;100705.84;2034941;79;20343;-78
2021/11/18 13:07:47;;;;;;;11.00;3.28;;;;;;;9.94;73.26;100704.97;2034070;79;20242;-78
2021/11/18 13:10:53;;;;;;;7.31;3.31;;;;;;;10.01;73.38;100708.53;2034704;79;20804;-78
2021/11/18 13:14:10;;;;;;;8.59;3.38;;;;;;;10.08;73.06;100713.03;2034481;79;20187;-77
2021/11/18 13:17:22;;;;;;;11.16;3.71;;;;;;;10.16;72.85;100706.25;2031711;77;24302;-77
2021/11/18 13:21:03;;;;;;;8.91;2.61;;;;;;;10.30;73.05;100703.94;2034098;79;20286;-77
2021/11/18 13:24:33;;;;;;;7.14;2.51;;;;;;;10.47;71.85;100704.22;2027990;79;20235;-76
2021/11/18 13:27:38;;;;;;;9.84;3.01;;;;;;;10.61;70.54;100707.06;2032636;79;20186;-76
2021/11/18 13:30:59;;;;;;;8.61;2.42;;;;;;;10.77;70.15;100696.03;2029799;79;22238;-76
2021/11/18 13:34:29;;;;;;;10.89;2.64;;;;;;;10.88;70.04;100699.69;2024328;79;20217;-77
2021/11/18 13:37:35;;;;;;;6.15;2.31;;;;;;;10.92;69.87;100700.59;2027201;79;20188;-77
2021/11/18 13:40:48;;;;;;;8.10;2.39;;;;;;;10.85;69.12;100707.44;2029398;79;20179;-78
2021/11/18 13:43:55;;;;;;;8.69;2.45;;;;;;;10.73;68.00;100704.66;2030604;79;20175;-80
2021/11/18 13:47:04;;;;;;;9.05;2.55;;;;;;;10.60;68.19;100711.38;2030177;77;27394;-78
2021/11/18 13:50:35;;;;;;;8.34;2.55;;;;;;;10.46;68.13;100705.94;2034396;79;20195;-78
2021/11/18 13:53:44;;;;;;;12.63;3.00;;;;;;;10.34;68.86;100700.53;2034595;79;20181;-77
2021/11/18 13:57:03;;;;;;;7.41;2.04;;;;;;;10.21;69.45;100690.78;2034069;79;20185;-78
2021/11/18 14:00:43;;;;;;;7.07;2.00;;;;;;;10.09;69.51;100687.94;2033214;79;20258;-78
2021/11/18 14:03:52;;;;;;;5.72;2.35;;;;;;;10.00;70.05;100689.50;2015320;80;20188;-81
2021/11/18 14:06:57;;;;;;;7.53;2.13;;;;;;;9.96;70.07;100698.09;2029622;79;20194;-78
2021/11/18 14:10:07;;;;;;;7.49;2.35;;;;;;;9.97;70.20;100699.84;2028110;79;20198;-78
2021/11/18 14:13:29;;;;;;;7.14;2.53;;;;;;;10.04;70.81;100713.78;2028401;79;20711;-78
2021/11/18 14:16:41;;;;;;;8.93;3.19;;;;;;;10.06;71.03;100712.13;2030923;77;23555;-78
2021/11/18 14:20:10;;;;;;;6.25;1.76;;;;;;;10.08;71.26;100699.19;2034908;79;20279;-78
2021/11/18 14:23:30;;;;;;;7.95;2.84;;;;;;;10.06;71.02;100699.16;2038838;79;20178;-78
2021/11/18 14:26:53;;;;;;;7.93;2.17;;;;;;;10.07;70.72;100702.63;2034865;79;20249;-78
2021/11/18 14:30:09;;;;;;;7.47;2.14;;;;;;;10.00;70.17;100702.47;2034421;79;20195;-77
2021/11/18 14:33:17;;;;;;;10.29;2.30;;;;;;;9.97;70.80;100707.63;2034105;77;24503;-79
2021/11/18 14:36:32;;;;;;;9.51;2.70;;;;;;;9.96;71.02;100702.41;2034072;79;20321;-78
2021/11/18 14:39:46;;;;;;;7.00;2.72;;;;;;;9.93;70.89;100707.53;2034550;79;20282;-78